sensor_id;sensor_type;location;lat;lon;timestamp;P1;durP1;ratioP1;P2;durP2;ratioP2
32297;SDS011;18782;48.984;8.548;2023-11-21T00:00:15;3.08;;;0.50;;
32297;SDS011;18782;48.984;8.548;2023-11-21T00:02:44;3.05;;;0.40;;
32297;SDS011;18782;48.984;8.548;2023-11-21T00:05:12;3.95;;;0.55;;
32297;SDS011;18782;48.984;8.548;2023-11-21T00:07:43;2.72;;;0.35;;
32297;SDS011;18782;48.984;8.548;2023-11-21T00:10:11;2.42;;;0.30;;
32297;SDS011;18782;48.984;8.548;2023-11-21T00:12:42;2.00;;;0.32;;
32297;SDS011;18782;48.984;8.548;2023-11-21T00:15:10;5.50;;;0.60;;
32297;SDS011;18782;48.984;8.548;2023-11-21T00:17:41;3.08;;;0.57;;
32297;SDS011;18782;48.984;8.548;2023-11-21T00:20:10;1.30;;;0.40;;
32297;SDS011;18782;48.984;8.548;2023-11-21T00:22:40;4.07;;;0.30;;
32297;SDS011;18782;48.984;8.548;2023-11-21T00:25:10;3.25;;;0.28;;
32297;SDS011;18782;48.984;8.548;2023-11-21T00:27:41;1.10;;;0.20;;
32297;SDS011;18782;48.984;8.548;2023-11-21T00:30:10;2.50;;;0.32;;
32297;SDS011;18782;48.984;8.548;2023-11-21T00:32:39;3.00;;;0.45;;
32297;SDS011;18782;48.984;8.548;2023-11-21T00:35:07;2.40;;;0.40;;
32297;SDS011;18782;48.984;8.548;2023-11-21T00:37:35;2.92;;;0.50;;
32297;SDS011;18782;48.984;8.548;2023-11-21T00:40:05;2.35;;;0.28;;
32297;SDS011;18782;48.984;8.548;2023-11-21T00:42:36;2.17;;;0.20;;
32297;SDS011;18782;48.984;8.548;2023-11-21T00:45:05;0.77;;;0.10;;
32297;SDS011;18782;48.984;8.548;2023-11-21T00:47:34;1.33;;;0.10;;
32297;SDS011;18782;48.984;8.548;2023-11-21T00:50:02;2.05;;;0.20;;
32297;SDS011;18782;48.984;8.548;2023-11-21T00:52:32;2.17;;;0.30;;
32297;SDS011;18782;48.984;8.548;2023-11-21T00:54:59;3.33;;;0.47;;
32297;SDS011;18782;48.984;8.548;2023-11-21T00:57:27;3.05;;;0.30;;
32297;SDS011;18782;48.984;8.548;2023-11-21T00:59:57;2.80;;;0.30;;
32297;SDS011;18782;48.984;8.548;2023-11-21T01:02:24;3.17;;;0.52;;
32297;SDS011;18782;48.984;8.548;2023-11-21T01:04:52;2.65;;;0.35;;
32297;SDS011;18782;48.984;8.548;2023-11-21T01:07:20;3.22;;;0.70;;
32297;SDS011;18782;48.984;8.548;2023-11-21T01:09:49;1.48;;;0.30;;
32297;SDS011;18782;48.984;8.548;2023-11-21T01:12:17;2.80;;;0.22;;
32297;SDS011;18782;48.984;8.548;2023-11-21T01:14:45;1.02;;;0.20;;
32297;SDS011;18782;48.984;8.548;2023-11-21T01:17:14;5.07;;;0.30;;
32297;SDS011;18782;48.984;8.548;2023-11-21T01:19:41;2.10;;;0.20;;
32297;SDS011;18782;48.984;8.548;2023-11-21T01:22:09;3.17;;;0.40;;
32297;SDS011;18782;48.984;8.548;2023-11-21T01:24:38;1.92;;;0.40;;
32297;SDS011;18782;48.984;8.548;2023-11-21T01:27:06;3.13;;;0.30;;
32297;SDS011;18782;48.984;8.548;2023-11-21T01:29:35;1.40;;;0.28;;
32297;SDS011;18782;48.984;8.548;2023-11-21T01:32:02;2.72;;;0.32;;
32297;SDS011;18782;48.984;8.548;2023-11-21T01:34:32;1.60;;;0.22;;
32297;SDS011;18782;48.984;8.548;2023-11-21T01:37:00;2.03;;;0.30;;
32297;SDS011;18782;48.984;8.548;2023-11-21T01:39:27;2.47;;;0.40;;
32297;SDS011;18782;48.984;8.548;2023-11-21T01:41:55;2.60;;;0.50;;
32297;SDS011;18782;48.984;8.548;2023-11-21T01:44:24;1.80;;;0.30;;
32297;SDS011;18782;48.984;8.548;2023-11-21T01:46:52;1.63;;;0.15;;
32297;SDS011;18782;48.984;8.548;2023-11-21T01:49:20;2.00;;;0.43;;
32297;SDS011;18782;48.984;8.548;2023-11-21T01:51:49;1.70;;;0.30;;
32297;SDS011;18782;48.984;8.548;2023-11-21T01:54:18;2.88;;;0.30;;
32297;SDS011;18782;48.984;8.548;2023-11-21T01:56:47;3.85;;;0.20;;
32297;SDS011;18782;48.984;8.548;2023-11-21T01:59:17;2.78;;;0.30;;
32297;SDS011;18782;48.984;8.548;2023-11-21T02:01:47;1.45;;;0.20;;
32297;SDS011;18782;48.984;8.548;2023-11-21T02:04:16;2.83;;;0.30;;
32297;SDS011;18782;48.984;8.548;2023-11-21T02:06:45;2.22;;;0.20;;
32297;SDS011;18782;48.984;8.548;2023-11-21T02:09:14;0.85;;;0.20;;
32297;SDS011;18782;48.984;8.548;2023-11-21T02:11:44;1.30;;;0.22;;
32297;SDS011;18782;48.984;8.548;2023-11-21T02:14:12;1.23;;;0.30;;
32297;SDS011;18782;48.984;8.548;2023-11-21T02:16:40;1.15;;;0.30;;
32297;SDS011;18782;48.984;8.548;2023-11-21T02:21:42;1.70;;;0.20;;
32297;SDS011;18782;48.984;8.548;2023-11-21T02:24:12;1.40;;;0.22;;
32297;SDS011;18782;48.984;8.548;2023-11-21T02:26:40;2.72;;;0.28;;
32297;SDS011;18782;48.984;8.548;2023-11-21T02:29:08;1.67;;;0.50;;
32297;SDS011;18782;48.984;8.548;2023-11-21T02:31:39;2.85;;;0.25;;
32297;SDS011;18782;48.984;8.548;2023-11-21T02:34:15;1.50;;;0.30;;
32297;SDS011;18782;48.984;8.548;2023-11-21T02:36:43;0.93;;;0.13;;
32297;SDS011;18782;48.984;8.548;2023-11-21T02:39:13;1.98;;;0.30;;
32297;SDS011;18782;48.984;8.548;2023-11-21T02:41:40;0.75;;;0.25;;
32297;SDS011;18782;48.984;8.548;2023-11-21T02:44:08;1.95;;;0.22;;
32297;SDS011;18782;48.984;8.548;2023-11-21T02:46:36;1.27;;;0.20;;
32297;SDS011;18782;48.984;8.548;2023-11-21T02:49:05;1.33;;;0.30;;
32297;SDS011;18782;48.984;8.548;2023-11-21T02:51:33;1.50;;;0.32;;
32297;SDS011;18782;48.984;8.548;2023-11-21T02:54:02;0.75;;;0.15;;
32297;SDS011;18782;48.984;8.548;2023-11-21T02:56:34;1.15;;;0.20;;
32297;SDS011;18782;48.984;8.548;2023-11-21T02:59:03;2.20;;;0.40;;
32297;SDS011;18782;48.984;8.548;2023-11-21T03:01:31;1.38;;;0.22;;
32297;SDS011;18782;48.984;8.548;2023-11-21T03:03:59;3.00;;;0.35;;
32297;SDS011;18782;48.984;8.548;2023-11-21T03:06:28;1.90;;;0.30;;
32297;SDS011;18782;48.984;8.548;2023-11-21T03:08:55;4.40;;;0.40;;
32297;SDS011;18782;48.984;8.548;2023-11-21T03:11:23;1.48;;;0.30;;
32297;SDS011;18782;48.984;8.548;2023-11-21T03:13:52;0.82;;;0.20;;
32297;SDS011;18782;48.984;8.548;2023-11-21T03:16:20;3.13;;;0.20;;
32297;SDS011;18782;48.984;8.548;2023-11-21T03:18:47;2.00;;;0.32;;
32297;SDS011;18782;48.984;8.548;2023-11-21T03:21:15;2.38;;;0.32;;
32297;SDS011;18782;48.984;8.548;2023-11-21T03:23:43;3.55;;;0.60;;
32297;SDS011;18782;48.984;8.548;2023-11-21T03:26:11;2.47;;;0.50;;
32297;SDS011;18782;48.984;8.548;2023-11-21T03:28:40;2.00;;;0.47;;
32297;SDS011;18782;48.984;8.548;2023-11-21T03:31:09;2.30;;;0.32;;
32297;SDS011;18782;48.984;8.548;2023-11-21T03:33:36;3.22;;;0.32;;
32297;SDS011;18782;48.984;8.548;2023-11-21T03:36:04;2.17;;;0.40;;
32297;SDS011;18782;48.984;8.548;2023-11-21T03:38:34;3.05;;;0.30;;
32297;SDS011;18782;48.984;8.548;2023-11-21T03:41:01;2.65;;;0.45;;
32297;SDS011;18782;48.984;8.548;2023-11-21T03:43:29;3.90;;;0.55;;
32297;SDS011;18782;48.984;8.548;2023-11-21T03:45:57;2.85;;;0.40;;
32297;SDS011;18782;48.984;8.548;2023-11-21T03:48:26;1.75;;;0.40;;
32297;SDS011;18782;48.984;8.548;2023-11-21T03:50:53;2.47;;;0.50;;
32297;SDS011;18782;48.984;8.548;2023-11-21T03:53:21;1.63;;;0.38;;
32297;SDS011;18782;48.984;8.548;2023-11-21T03:55:49;1.85;;;0.40;;
32297;SDS011;18782;48.984;8.548;2023-11-21T03:58:17;2.20;;;0.70;;
32297;SDS011;18782;48.984;8.548;2023-11-21T04:00:45;3.97;;;0.80;;
32297;SDS011;18782;48.984;8.548;2023-11-21T04:03:15;3.20;;;0.90;;
32297;SDS011;18782;48.984;8.548;2023-11-21T04:05:44;3.10;;;1.42;;
32297;SDS011;18782;48.984;8.548;2023-11-21T04:08:12;3.20;;;1.15;;
32297;SDS011;18782;48.984;8.548;2023-11-21T04:10:40;1.50;;;0.47;;
32297;SDS011;18782;48.984;8.548;2023-11-21T04:13:08;1.10;;;0.30;;
32297;SDS011;18782;48.984;8.548;2023-11-21T04:15:36;1.63;;;0.20;;
32297;SDS011;18782;48.984;8.548;2023-11-21T04:18:04;1.60;;;0.30;;
32297;SDS011;18782;48.984;8.548;2023-11-21T04:20:32;1.80;;;0.30;;
32297;SDS011;18782;48.984;8.548;2023-11-21T04:23:01;3.47;;;0.30;;
32297;SDS011;18782;48.984;8.548;2023-11-21T04:25:29;0.88;;;0.30;;
32297;SDS011;18782;48.984;8.548;2023-11-21T04:27:57;1.88;;;0.40;;
32297;SDS011;18782;48.984;8.548;2023-11-21T04:30:24;2.72;;;0.45;;
32297;SDS011;18782;48.984;8.548;2023-11-21T04:32:52;0.65;;;0.28;;
32297;SDS011;18782;48.984;8.548;2023-11-21T04:35:20;1.90;;;0.32;;
32297;SDS011;18782;48.984;8.548;2023-11-21T04:37:47;1.38;;;0.28;;
32297;SDS011;18782;48.984;8.548;2023-11-21T04:40:16;3.50;;;0.73;;
32297;SDS011;18782;48.984;8.548;2023-11-21T04:42:44;3.35;;;0.40;;
32297;SDS011;18782;48.984;8.548;2023-11-21T04:45:12;1.02;;;0.50;;
32297;SDS011;18782;48.984;8.548;2023-11-21T04:47:40;0.65;;;0.30;;
32297;SDS011;18782;48.984;8.548;2023-11-21T04:50:10;3.28;;;0.40;;
32297;SDS011;18782;48.984;8.548;2023-11-21T04:52:37;2.60;;;0.70;;
32297;SDS011;18782;48.984;8.548;2023-11-21T04:55:05;4.20;;;0.80;;
32297;SDS011;18782;48.984;8.548;2023-11-21T04:57:37;2.03;;;0.55;;
32297;SDS011;18782;48.984;8.548;2023-11-21T05:00:06;1.92;;;0.50;;
32297;SDS011;18782;48.984;8.548;2023-11-21T05:02:35;2.25;;;0.70;;
32297;SDS011;18782;48.984;8.548;2023-11-21T05:05:02;1.75;;;0.52;;
32297;SDS011;18782;48.984;8.548;2023-11-21T05:07:32;2.92;;;0.50;;
32297;SDS011;18782;48.984;8.548;2023-11-21T05:10:02;3.10;;;0.80;;
32297;SDS011;18782;48.984;8.548;2023-11-21T05:12:34;1.55;;;0.43;;
32297;SDS011;18782;48.984;8.548;2023-11-21T05:15:07;3.42;;;0.60;;
32297;SDS011;18782;48.984;8.548;2023-11-21T05:17:37;1.38;;;0.47;;
32297;SDS011;18782;48.984;8.548;2023-11-21T05:20:08;0.98;;;0.40;;
32297;SDS011;18782;48.984;8.548;2023-11-21T05:22:37;1.65;;;0.50;;
32297;SDS011;18782;48.984;8.548;2023-11-21T05:25:05;1.30;;;0.50;;
32297;SDS011;18782;48.984;8.548;2023-11-21T05:27:34;2.72;;;0.70;;
32297;SDS011;18782;48.984;8.548;2023-11-21T05:30:02;1.85;;;0.43;;
32297;SDS011;18782;48.984;8.548;2023-11-21T05:32:33;2.10;;;0.70;;
32297;SDS011;18782;48.984;8.548;2023-11-21T05:35:01;1.75;;;0.60;;
32297;SDS011;18782;48.984;8.548;2023-11-21T05:37:29;3.35;;;0.55;;
32297;SDS011;18782;48.984;8.548;2023-11-21T05:39:56;5.50;;;0.77;;
32297;SDS011;18782;48.984;8.548;2023-11-21T05:42:24;2.58;;;0.80;;
32297;SDS011;18782;48.984;8.548;2023-11-21T05:44:52;1.90;;;0.40;;
32297;SDS011;18782;48.984;8.548;2023-11-21T05:47:19;3.67;;;0.90;;
32297;SDS011;18782;48.984;8.548;2023-11-21T05:49:49;3.67;;;0.60;;
32297;SDS011;18782;48.984;8.548;2023-11-21T05:52:18;2.38;;;0.70;;
32297;SDS011;18782;48.984;8.548;2023-11-21T05:54:46;3.35;;;0.80;;
32297;SDS011;18782;48.984;8.548;2023-11-21T05:57:14;2.58;;;0.68;;
32297;SDS011;18782;48.984;8.548;2023-11-21T05:59:42;3.08;;;0.70;;
32297;SDS011;18782;48.984;8.548;2023-11-21T06:02:09;2.00;;;0.80;;
32297;SDS011;18782;48.984;8.548;2023-11-21T06:04:37;1.25;;;0.68;;
32297;SDS011;18782;48.984;8.548;2023-11-21T06:07:06;2.50;;;0.80;;
32297;SDS011;18782;48.984;8.548;2023-11-21T06:09:34;2.17;;;1.00;;
32297;SDS011;18782;48.984;8.548;2023-11-21T06:12:03;4.00;;;1.00;;
32297;SDS011;18782;48.984;8.548;2023-11-21T06:14:32;1.50;;;1.00;;
32297;SDS011;18782;48.984;8.548;2023-11-21T06:17:01;2.67;;;1.20;;
32297;SDS011;18782;48.984;8.548;2023-11-21T06:19:30;2.20;;;0.90;;
32297;SDS011;18782;48.984;8.548;2023-11-21T06:21:58;2.47;;;1.40;;
32297;SDS011;18782;48.984;8.548;2023-11-21T06:24:27;2.00;;;1.02;;
32297;SDS011;18782;48.984;8.548;2023-11-21T06:26:55;1.92;;;0.90;;
32297;SDS011;18782;48.984;8.548;2023-11-21T06:29:22;2.90;;;0.90;;
32297;SDS011;18782;48.984;8.548;2023-11-21T06:31:50;3.70;;;0.90;;
32297;SDS011;18782;48.984;8.548;2023-11-21T06:34:18;1.00;;;0.70;;
32297;SDS011;18782;48.984;8.548;2023-11-21T06:36:46;1.20;;;0.77;;
32297;SDS011;18782;48.984;8.548;2023-11-21T06:39:13;1.85;;;0.70;;
32297;SDS011;18782;48.984;8.548;2023-11-21T06:41:44;1.15;;;1.05;;
32297;SDS011;18782;48.984;8.548;2023-11-21T06:44:12;3.50;;;1.10;;
32297;SDS011;18782;48.984;8.548;2023-11-21T06:46:40;1.38;;;0.50;;
32297;SDS011;18782;48.984;8.548;2023-11-21T06:49:09;2.88;;;1.10;;
32297;SDS011;18782;48.984;8.548;2023-11-21T06:51:37;1.60;;;0.85;;
32297;SDS011;18782;48.984;8.548;2023-11-21T06:54:05;4.72;;;2.38;;
32297;SDS011;18782;48.984;8.548;2023-11-21T06:56:33;9.48;;;6.35;;
32297;SDS011;18782;48.984;8.548;2023-11-21T06:59:03;3.72;;;1.63;;
32297;SDS011;18782;48.984;8.548;2023-11-21T07:01:31;3.17;;;1.52;;
32297;SDS011;18782;48.984;8.548;2023-11-21T07:04:05;2.38;;;1.35;;
32297;SDS011;18782;48.984;8.548;2023-11-21T07:06:33;1.70;;;0.68;;
32297;SDS011;18782;48.984;8.548;2023-11-21T07:09:00;2.30;;;0.70;;
32297;SDS011;18782;48.984;8.548;2023-11-21T07:11:29;1.83;;;0.80;;
32297;SDS011;18782;48.984;8.548;2023-11-21T07:13:57;1.58;;;0.70;;
32297;SDS011;18782;48.984;8.548;2023-11-21T07:16:26;2.08;;;0.90;;
32297;SDS011;18782;48.984;8.548;2023-11-21T07:18:54;1.75;;;0.95;;
32297;SDS011;18782;48.984;8.548;2023-11-21T07:21:22;1.27;;;0.90;;
32297;SDS011;18782;48.984;8.548;2023-11-21T07:23:50;2.38;;;1.05;;
32297;SDS011;18782;48.984;8.548;2023-11-21T07:26:18;2.38;;;1.20;;
32297;SDS011;18782;48.984;8.548;2023-11-21T07:28:46;1.65;;;0.95;;
32297;SDS011;18782;48.984;8.548;2023-11-21T07:31:13;1.42;;;1.20;;
32297;SDS011;18782;48.984;8.548;2023-11-21T07:33:42;4.53;;;1.77;;
32297;SDS011;18782;48.984;8.548;2023-11-21T07:36:10;4.38;;;1.88;;
32297;SDS011;18782;48.984;8.548;2023-11-21T07:38:38;2.55;;;1.50;;
32297;SDS011;18782;48.984;8.548;2023-11-21T07:41:06;2.85;;;1.33;;
32297;SDS011;18782;48.984;8.548;2023-11-21T07:43:51;1.98;;;1.20;;
32297;SDS011;18782;48.984;8.548;2023-11-21T07:46:18;1.45;;;0.80;;
32297;SDS011;18782;48.984;8.548;2023-11-21T07:48:48;2.20;;;1.25;;
32297;SDS011;18782;48.984;8.548;2023-11-21T07:51:16;1.92;;;1.10;;
32297;SDS011;18782;48.984;8.548;2023-11-21T07:53:44;2.17;;;1.10;;
32297;SDS011;18782;48.984;8.548;2023-11-21T07:56:11;2.30;;;1.10;;
32297;SDS011;18782;48.984;8.548;2023-11-21T07:58:39;2.10;;;1.25;;
32297;SDS011;18782;48.984;8.548;2023-11-21T08:01:07;2.70;;;1.10;;
32297;SDS011;18782;48.984;8.548;2023-11-21T08:03:35;2.28;;;1.15;;
32297;SDS011;18782;48.984;8.548;2023-11-21T08:06:04;2.58;;;1.80;;
32297;SDS011;18782;48.984;8.548;2023-11-21T08:08:32;2.53;;;1.60;;
32297;SDS011;18782;48.984;8.548;2023-11-21T08:11:00;3.13;;;2.28;;
32297;SDS011;18782;48.984;8.548;2023-11-21T08:13:30;4.50;;;2.83;;
32297;SDS011;18782;48.984;8.548;2023-11-21T08:15:58;5.38;;;1.83;;
32297;SDS011;18782;48.984;8.548;2023-11-21T08:18:29;4.55;;;2.00;;
32297;SDS011;18782;48.984;8.548;2023-11-21T08:20:57;3.25;;;2.05;;
32297;SDS011;18782;48.984;8.548;2023-11-21T08:23:26;4.97;;;3.28;;
32297;SDS011;18782;48.984;8.548;2023-11-21T08:25:54;2.72;;;1.80;;
32297;SDS011;18782;48.984;8.548;2023-11-21T08:28:22;3.45;;;2.10;;
32297;SDS011;18782;48.984;8.548;2023-11-21T08:30:52;2.38;;;1.50;;
32297;SDS011;18782;48.984;8.548;2023-11-21T08:33:20;4.10;;;2.38;;
32297;SDS011;18782;48.984;8.548;2023-11-21T08:35:48;11.15;;;6.95;;
32297;SDS011;18782;48.984;8.548;2023-11-21T08:38:16;13.30;;;6.35;;
32297;SDS011;18782;48.984;8.548;2023-11-21T08:40:46;4.57;;;2.45;;
32297;SDS011;18782;48.984;8.548;2023-11-21T08:43:13;2.78;;;1.88;;
32297;SDS011;18782;48.984;8.548;2023-11-21T08:45:42;2.35;;;1.50;;
32297;SDS011;18782;48.984;8.548;2023-11-21T08:48:10;2.22;;;1.38;;
32297;SDS011;18782;48.984;8.548;2023-11-21T08:50:38;2.20;;;1.38;;
32297;SDS011;18782;48.984;8.548;2023-11-21T08:53:06;2.03;;;1.42;;
32297;SDS011;18782;48.984;8.548;2023-11-21T08:55:33;2.70;;;1.80;;
32297;SDS011;18782;48.984;8.548;2023-11-21T08:58:05;3.38;;;1.80;;
32297;SDS011;18782;48.984;8.548;2023-11-21T09:00:33;2.90;;;1.83;;
32297;SDS011;18782;48.984;8.548;2023-11-21T09:03:00;2.75;;;1.73;;
32297;SDS011;18782;48.984;8.548;2023-11-21T09:05:28;2.45;;;1.70;;
32297;SDS011;18782;48.984;8.548;2023-11-21T09:07:56;3.03;;;2.65;;
32297;SDS011;18782;48.984;8.548;2023-11-21T09:10:24;4.32;;;2.83;;
32297;SDS011;18782;48.984;8.548;2023-11-21T09:12:52;4.53;;;3.45;;
32297;SDS011;18782;48.984;8.548;2023-11-21T09:15:21;4.63;;;3.88;;
32297;SDS011;18782;48.984;8.548;2023-11-21T09:17:48;5.63;;;5.00;;
32297;SDS011;18782;48.984;8.548;2023-11-21T09:20:16;5.72;;;4.57;;
32297;SDS011;18782;48.984;8.548;2023-11-21T09:22:44;7.57;;;5.43;;
32297;SDS011;18782;48.984;8.548;2023-11-21T09:25:12;5.93;;;5.00;;
32297;SDS011;18782;48.984;8.548;2023-11-21T09:27:40;9.13;;;5.22;;
32297;SDS011;18782;48.984;8.548;2023-11-21T09:30:08;6.97;;;5.50;;
32297;SDS011;18782;48.984;8.548;2023-11-21T09:32:38;10.88;;;6.90;;
32297;SDS011;18782;48.984;8.548;2023-11-21T09:35:07;8.27;;;6.72;;
32297;SDS011;18782;48.984;8.548;2023-11-21T09:37:35;8.27;;;7.00;;
32297;SDS011;18782;48.984;8.548;2023-11-21T09:40:04;9.85;;;7.13;;
32297;SDS011;18782;48.984;8.548;2023-11-21T09:42:39;10.73;;;7.90;;
32297;SDS011;18782;48.984;8.548;2023-11-21T09:45:11;10.00;;;7.35;;
32297;SDS011;18782;48.984;8.548;2023-11-21T09:47:47;11.57;;;7.82;;
32297;SDS011;18782;48.984;8.548;2023-11-21T09:50:16;10.25;;;7.80;;
32297;SDS011;18782;48.984;8.548;2023-11-21T09:52:48;9.82;;;7.63;;
32297;SDS011;18782;48.984;8.548;2023-11-21T09:55:22;9.82;;;7.80;;
32297;SDS011;18782;48.984;8.548;2023-11-21T09:57:53;9.00;;;7.40;;
32297;SDS011;18782;48.984;8.548;2023-11-21T10:00:23;13.23;;;10.15;;
32297;SDS011;18782;48.984;8.548;2023-11-21T10:02:53;14.57;;;10.30;;
32297;SDS011;18782;48.984;8.548;2023-11-21T10:05:21;11.15;;;8.93;;
32297;SDS011;18782;48.984;8.548;2023-11-21T10:07:52;13.10;;;9.48;;
32297;SDS011;18782;48.984;8.548;2023-11-21T10:10:23;12.35;;;8.82;;
32297;SDS011;18782;48.984;8.548;2023-11-21T10:12:54;12.85;;;9.43;;
32297;SDS011;18782;48.984;8.548;2023-11-21T10:15:23;11.43;;;8.63;;
32297;SDS011;18782;48.984;8.548;2023-11-21T10:17:54;12.50;;;8.93;;
32297;SDS011;18782;48.984;8.548;2023-11-21T10:20:22;12.13;;;9.40;;
32297;SDS011;18782;48.984;8.548;2023-11-21T10:22:51;11.20;;;9.00;;
32297;SDS011;18782;48.984;8.548;2023-11-21T10:25:18;12.63;;;8.75;;
32297;SDS011;18782;48.984;8.548;2023-11-21T10:27:47;13.23;;;9.55;;
32297;SDS011;18782;48.984;8.548;2023-11-21T10:30:17;13.35;;;9.60;;
32297;SDS011;18782;48.984;8.548;2023-11-21T10:32:45;17.27;;;10.68;;
32297;SDS011;18782;48.984;8.548;2023-11-21T10:35:15;12.77;;;9.48;;
32297;SDS011;18782;48.984;8.548;2023-11-21T10:37:42;13.48;;;10.30;;
32297;SDS011;18782;48.984;8.548;2023-11-21T10:40:10;15.48;;;11.05;;
32297;SDS011;18782;48.984;8.548;2023-11-21T10:42:39;11.48;;;9.25;;
32297;SDS011;18782;48.984;8.548;2023-11-21T10:45:08;8.85;;;7.88;;
32297;SDS011;18782;48.984;8.548;2023-11-21T10:47:39;12.70;;;9.32;;
32297;SDS011;18782;48.984;8.548;2023-11-21T10:50:09;11.48;;;8.82;;
32297;SDS011;18782;48.984;8.548;2023-11-21T10:52:40;10.68;;;8.52;;
32297;SDS011;18782;48.984;8.548;2023-11-21T10:55:16;10.88;;;8.20;;
32297;SDS011;18782;48.984;8.548;2023-11-21T10:57:45;10.68;;;7.85;;
32297;SDS011;18782;48.984;8.548;2023-11-21T11:00:16;12.45;;;8.95;;
32297;SDS011;18782;48.984;8.548;2023-11-21T11:02:47;11.27;;;8.90;;
32297;SDS011;18782;48.984;8.548;2023-11-21T11:05:17;10.05;;;8.07;;
32297;SDS011;18782;48.984;8.548;2023-11-21T11:07:48;11.15;;;8.75;;
32297;SDS011;18782;48.984;8.548;2023-11-21T11:10:20;12.55;;;7.82;;
32297;SDS011;18782;48.984;8.548;2023-11-21T11:12:53;9.93;;;7.60;;
32297;SDS011;18782;48.984;8.548;2023-11-21T11:15:21;15.70;;;10.88;;
32297;SDS011;18782;48.984;8.548;2023-11-21T11:17:49;13.20;;;9.00;;
32297;SDS011;18782;48.984;8.548;2023-11-21T11:20:17;9.65;;;7.75;;
32297;SDS011;18782;48.984;8.548;2023-11-21T11:22:50;9.10;;;7.40;;
32297;SDS011;18782;48.984;8.548;2023-11-21T11:25:39;8.32;;;6.55;;
32297;SDS011;18782;48.984;8.548;2023-11-21T11:28:20;7.40;;;5.90;;
32297;SDS011;18782;48.984;8.548;2023-11-21T11:30:53;8.00;;;5.80;;
32297;SDS011;18782;48.984;8.548;2023-11-21T11:33:33;8.15;;;6.00;;
32297;SDS011;18782;48.984;8.548;2023-11-21T11:36:09;8.38;;;6.07;;
32297;SDS011;18782;48.984;8.548;2023-11-21T11:38:46;7.03;;;5.75;;
32297;SDS011;18782;48.984;8.548;2023-11-21T11:41:23;6.95;;;5.63;;
32297;SDS011;18782;48.984;8.548;2023-11-21T11:43:53;6.40;;;5.63;;
32297;SDS011;18782;48.984;8.548;2023-11-21T11:46:20;6.30;;;4.65;;
32297;SDS011;18782;48.984;8.548;2023-11-21T11:49:08;7.00;;;5.13;;
32297;SDS011;18782;48.984;8.548;2023-11-21T11:51:36;5.28;;;4.38;;
32297;SDS011;18782;48.984;8.548;2023-11-21T11:54:05;7.57;;;4.88;;
32297;SDS011;18782;48.984;8.548;2023-11-21T11:56:34;6.13;;;5.00;;
32297;SDS011;18782;48.984;8.548;2023-11-21T11:59:03;5.47;;;4.63;;
32297;SDS011;18782;48.984;8.548;2023-11-21T12:01:35;6.18;;;5.00;;
32297;SDS011;18782;48.984;8.548;2023-11-21T12:07:00;6.63;;;4.78;;
32297;SDS011;18782;48.984;8.548;2023-11-21T12:09:31;5.03;;;4.10;;
32297;SDS011;18782;48.984;8.548;2023-11-21T12:11:59;4.05;;;3.45;;
32297;SDS011;18782;48.984;8.548;2023-11-21T12:14:27;4.95;;;3.60;;
32297;SDS011;18782;48.984;8.548;2023-11-21T12:16:55;4.47;;;3.28;;
32297;SDS011;18782;48.984;8.548;2023-11-21T12:19:23;5.18;;;2.90;;
32297;SDS011;18782;48.984;8.548;2023-11-21T12:21:50;3.15;;;2.80;;
32297;SDS011;18782;48.984;8.548;2023-11-21T12:24:18;3.88;;;2.92;;
32297;SDS011;18782;48.984;8.548;2023-11-21T12:26:47;3.63;;;2.35;;
32297;SDS011;18782;48.984;8.548;2023-11-21T12:29:14;3.85;;;2.50;;
32297;SDS011;18782;48.984;8.548;2023-11-21T12:31:43;3.88;;;3.00;;
32297;SDS011;18782;48.984;8.548;2023-11-21T12:34:12;3.75;;;2.63;;
32297;SDS011;18782;48.984;8.548;2023-11-21T12:36:40;4.18;;;2.20;;
32297;SDS011;18782;48.984;8.548;2023-11-21T12:39:07;3.45;;;1.70;;
32297;SDS011;18782;48.984;8.548;2023-11-21T12:41:37;2.20;;;1.80;;
32297;SDS011;18782;48.984;8.548;2023-11-21T12:44:12;2.53;;;1.75;;
32297;SDS011;18782;48.984;8.548;2023-11-21T12:46:42;4.93;;;3.25;;
32297;SDS011;18782;48.984;8.548;2023-11-21T12:49:11;2.85;;;1.98;;
32297;SDS011;18782;48.984;8.548;2023-11-21T12:51:43;3.45;;;2.08;;
32297;SDS011;18782;48.984;8.548;2023-11-21T12:54:12;3.15;;;2.13;;
32297;SDS011;18782;48.984;8.548;2023-11-21T12:56:40;4.97;;;2.50;;
32297;SDS011;18782;48.984;8.548;2023-11-21T12:59:07;4.40;;;3.38;;
32297;SDS011;18782;48.984;8.548;2023-11-21T13:01:41;3.35;;;2.58;;
32297;SDS011;18782;48.984;8.548;2023-11-21T13:04:09;4.15;;;3.20;;
32297;SDS011;18782;48.984;8.548;2023-11-21T13:06:38;3.75;;;2.85;;
32297;SDS011;18782;48.984;8.548;2023-11-21T13:09:07;5.45;;;3.28;;
32297;SDS011;18782;48.984;8.548;2023-11-21T13:11:36;4.28;;;3.38;;
32297;SDS011;18782;48.984;8.548;2023-11-21T13:14:07;4.32;;;3.28;;
32297;SDS011;18782;48.984;8.548;2023-11-21T13:16:38;4.20;;;3.47;;
32297;SDS011;18782;48.984;8.548;2023-11-21T13:19:12;4.50;;;3.65;;
32297;SDS011;18782;48.984;8.548;2023-11-21T13:21:40;5.80;;;3.90;;
32297;SDS011;18782;48.984;8.548;2023-11-21T13:24:07;4.68;;;4.13;;
32297;SDS011;18782;48.984;8.548;2023-11-21T13:26:36;5.97;;;4.18;;
32297;SDS011;18782;48.984;8.548;2023-11-21T13:29:03;6.05;;;4.63;;
32297;SDS011;18782;48.984;8.548;2023-11-21T13:31:31;8.43;;;4.80;;
32297;SDS011;18782;48.984;8.548;2023-11-21T13:34:04;5.78;;;4.00;;
32297;SDS011;18782;48.984;8.548;2023-11-21T13:36:34;5.20;;;4.18;;
32297;SDS011;18782;48.984;8.548;2023-11-21T13:39:02;5.25;;;4.30;;
32297;SDS011;18782;48.984;8.548;2023-11-21T13:41:34;7.00;;;4.32;;
32297;SDS011;18782;48.984;8.548;2023-11-21T13:44:04;4.95;;;4.10;;
32297;SDS011;18782;48.984;8.548;2023-11-21T13:46:42;6.20;;;4.47;;
32297;SDS011;18782;48.984;8.548;2023-11-21T13:49:13;4.38;;;3.50;;
32297;SDS011;18782;48.984;8.548;2023-11-21T13:51:42;4.70;;;3.35;;
32297;SDS011;18782;48.984;8.548;2023-11-21T13:54:11;4.10;;;3.35;;
32297;SDS011;18782;48.984;8.548;2023-11-21T13:56:40;4.70;;;3.38;;
32297;SDS011;18782;48.984;8.548;2023-11-21T13:59:11;5.07;;;4.05;;
32297;SDS011;18782;48.984;8.548;2023-11-21T14:01:50;4.60;;;3.20;;
32297;SDS011;18782;48.984;8.548;2023-11-21T14:04:27;5.07;;;2.53;;
32297;SDS011;18782;48.984;8.548;2023-11-21T14:07:20;3.85;;;2.75;;
32297;SDS011;18782;48.984;8.548;2023-11-21T14:09:56;3.55;;;2.25;;
32297;SDS011;18782;48.984;8.548;2023-11-21T14:12:24;3.33;;;2.15;;
32297;SDS011;18782;48.984;8.548;2023-11-21T14:14:52;3.00;;;2.15;;
32297;SDS011;18782;48.984;8.548;2023-11-21T14:17:21;1.92;;;1.40;;
32297;SDS011;18782;48.984;8.548;2023-11-21T14:19:51;3.33;;;1.80;;
32297;SDS011;18782;48.984;8.548;2023-11-21T14:22:21;4.03;;;1.67;;
32297;SDS011;18782;48.984;8.548;2023-11-21T14:24:51;2.58;;;1.73;;
32297;SDS011;18782;48.984;8.548;2023-11-21T14:27:22;2.15;;;1.48;;
32297;SDS011;18782;48.984;8.548;2023-11-21T14:29:49;2.92;;;1.90;;
32297;SDS011;18782;48.984;8.548;2023-11-21T14:32:18;2.92;;;1.73;;
32297;SDS011;18782;48.984;8.548;2023-11-21T14:34:46;2.45;;;1.90;;
32297;SDS011;18782;48.984;8.548;2023-11-21T14:37:16;2.40;;;1.80;;
32297;SDS011;18782;48.984;8.548;2023-11-21T14:39:43;2.08;;;1.52;;
32297;SDS011;18782;48.984;8.548;2023-11-21T14:42:15;4.55;;;1.48;;
32297;SDS011;18782;48.984;8.548;2023-11-21T14:44:47;3.25;;;1.70;;
32297;SDS011;18782;48.984;8.548;2023-11-21T14:47:15;4.10;;;1.88;;
32297;SDS011;18782;48.984;8.548;2023-11-21T14:49:43;3.17;;;2.22;;
32297;SDS011;18782;48.984;8.548;2023-11-21T14:52:21;2.90;;;1.90;;
32297;SDS011;18782;48.984;8.548;2023-11-21T14:54:59;2.55;;;1.80;;
32297;SDS011;18782;48.984;8.548;2023-11-21T14:57:41;4.72;;;1.95;;
32297;SDS011;18782;48.984;8.548;2023-11-21T15:00:12;4.00;;;2.15;;
32297;SDS011;18782;48.984;8.548;2023-11-21T15:02:57;4.47;;;2.17;;